Time;durP1;ratioP1;P1;durP2;ratioP2;P2;SDS_P1;SDS_P2;PMS_P1;PMS_P2;Temp;Humidity;BMP_temperature;BMP_pressure;BME280_temperature;BME280_humidity;BME280_pressure;Samples;Min_cycle;Max_cycle;Signal;HPM_P1;HPM_P2
2021/04/28 00:00:37;;;;;;;0.30;0.20;;;;;;;4.75;72.76;99179.38;5016814;28;20472;-54
2021/04/28 00:03:06;;;;;;;0.30;0.20;;;;;;;4.64;73.57;99176.09;5016397;28;20563;-59
2021/04/28 00:05:32;;;;;;;0.30;0.20;;;;;;;4.80;72.35;99171.38;5015162;28;20938;-54
2021/04/28 00:07:59;;;;;;;0.30;0.20;;;;;;;4.91;72.78;99171.09;5016703;28;20520;-53
2021/04/28 00:10:30;;;;;;;0.30;0.20;;;;;;;4.72;73.49;99174.19;5016504;28;20479;-54
2021/04/28 00:12:57;;;;;;;0.30;0.20;;;;;;;4.69;73.81;99168.13;5016572;28;20456;-54
2021/04/28 00:15:27;;;;;;;0.30;0.20;;;;;;;4.85;73.67;99172.13;5016717;28;20502;-55
2021/04/28 00:17:55;;;;;;;0.30;0.20;;;;;;;4.77;74.78;99163.53;5016490;28;20444;-54
2021/04/28 00:20:22;;;;;;;0.30;0.20;;;;;;;4.63;74.58;99168.25;5016539;28;20476;-53
2021/04/28 00:22:49;;;;;;;0.30;0.20;;;;;;;4.76;73.93;99162.66;5015075;28;20449;-54
2021/04/28 00:25:20;;;;;;;0.30;0.20;;;;;;;4.87;74.00;99156.28;5016121;28;20460;-56
2021/04/28 00:27:47;;;;;;;0.30;0.20;;;;;;;4.67;74.51;99169.94;5016176;28;20488;-54
2021/04/28 00:30:15;;;;;;;0.30;0.20;;;;;;;4.59;74.79;99166.59;5016104;28;20990;-54
2021/04/28 00:32:42;;;;;;;3.93;1.07;;;;;;;4.64;74.42;99164.72;5016419;28;20514;-54
2021/04/28 00:35:12;;;;;;;0.30;0.20;;;;;;;4.43;75.68;99169.56;5016632;28;20456;-54
2021/04/28 00:37:38;;;;;;;0.30;0.20;;;;;;;4.47;75.37;99171.22;5015997;28;20938;-54
2021/04/28 00:40:08;;;;;;;1.53;1.13;;;;;;;4.60;74.57;99163.06;5015115;28;20559;-54
2021/04/28 00:42:35;;;;;;;0.30;0.20;;;;;;;4.46;75.39;99169.50;5016065;28;20521;-55
2021/04/28 00:45:03;;;;;;;0.30;0.10;;;;;;;4.49;75.57;99159.81;5016455;28;20476;-54
2021/04/28 00:47:29;;;;;;;0.30;0.20;;;;;;;4.36;75.37;99159.19;5015837;28;20486;-53
2021/04/28 00:49:56;;;;;;;0.30;0.20;;;;;;;4.39;75.51;99161.78;5016234;28;20882;-54
2021/04/28 00:52:22;;;;;;;0.30;0.20;;;;;;;4.31;75.49;99154.06;5016026;28;20448;-55
2021/04/28 00:54:50;;;;;;;0.30;0.20;;;;;;;4.09;76.43;99153.63;5016279;28;21060;-53
2021/04/28 00:57:16;;;;;;;0.30;0.13;;;;;;;4.26;76.80;99155.94;5015706;28;20456;-54
2021/04/28 00:59:42;;;;;;;0.30;0.20;;;;;;;4.56;75.55;99150.88;5016154;28;20457;-54
2021/04/28 01:02:08;;;;;;;0.50;0.50;;;;;;;4.52;74.51;99143.94;5015769;28;20503;-55
2021/04/28 01:04:35;;;;;;;3.33;1.87;;;;;;;4.40;75.19;99143.34;5016029;28;20490;-58
2021/04/28 01:07:05;;;;;;;0.30;0.20;;;;;;;4.27;76.17;99151.53;5015985;28;20514;-53
2021/04/28 01:09:33;;;;;;;0.30;0.20;;;;;;;4.45;76.41;99143.22;5015987;28;20492;-54
2021/04/28 01:12:02;;;;;;;0.30;0.20;;;;;;;4.37;76.82;99148.63;5015948;28;20522;-54
2021/04/28 01:14:30;;;;;;;0.30;0.20;;;;;;;3.81;77.96;99149.81;5015734;28;20830;-54
2021/04/28 01:16:58;;;;;;;0.30;0.20;;;;;;;3.82;77.80;99146.31;5016137;28;20456;-55
2021/04/28 01:19:27;;;;;;;0.30;0.20;;;;;;;4.19;76.86;99132.41;5019413;28;20527;-63
2021/04/28 01:21:54;;;;;;;0.30;0.20;;;;;;;3.75;77.17;99134.19;5019585;28;20511;-58
2021/04/28 01:24:21;;;;;;;0.30;0.20;;;;;;;3.81;77.80;99144.56;5010645;28;20510;-54
2021/04/28 01:26:57;;;;;;;0.30;0.20;;;;;;;3.79;78.40;99141.97;5019263;28;20460;-54
2021/04/28 01:29:25;;;;;;;0.30;0.10;;;;;;;3.85;77.80;99135.75;5019702;28;20495;-58
2021/04/28 01:31:53;;;;;;;0.40;0.30;;;;;;;3.74;77.16;99137.72;5018820;28;20456;-54
2021/04/28 01:34:21;;;;;;;0.30;0.20;;;;;;;3.72;78.42;99136.91;5019849;28;20479;-55
2021/04/28 01:36:48;;;;;;;0.30;0.20;;;;;;;3.76;78.32;99136.78;5019368;28;20736;-54
2021/04/28 01:39:17;;;;;;;0.30;0.10;;;;;;;3.59;79.14;99136.25;5019212;28;20449;-54
2021/04/28 01:41:46;;;;;;;0.30;0.20;;;;;;;3.88;79.10;99132.19;5019028;28;20990;-54
2021/04/28 01:44:16;;;;;;;0.40;0.40;;;;;;;3.80;79.04;99133.19;5019466;28;20448;-55
2021/04/28 01:46:43;;;;;;;0.30;0.20;;;;;;;3.69;79.50;99140.41;5006031;28;20456;-55
2021/04/28 01:49:10;;;;;;;0.30;0.17;;;;;;;3.73;79.50;99130.75;5019163;28;20480;-55
2021/04/28 01:51:39;;;;;;;0.30;0.30;;;;;;;3.69;78.89;99126.41;5018537;28;20879;-54
2021/04/28 01:54:07;;;;;;;0.30;0.20;;;;;;;3.63;79.49;99127.41;5018956;28;20444;-53
2021/04/28 01:56:35;;;;;;;0.30;0.10;;;;;;;3.53;79.60;99124.09;5019151;28;21012;-58
2021/04/28 01:59:03;;;;;;;0.30;0.20;;;;;;;3.31;80.72;99117.53;5018867;28;20450;-54
2021/04/28 02:01:30;;;;;;;0.40;0.37;;;;;;;3.26;81.79;99124.59;5018528;28;20568;-54
2021/04/28 02:03:56;;;;;;;0.30;0.20;;;;;;;3.34;81.04;99124.47;5018934;28;20452;-58
2021/04/28 02:06:23;;;;;;;0.40;0.30;;;;;;;3.25;80.96;99117.63;5018663;28;20448;-54
2021/04/28 02:08:50;;;;;;;0.30;0.10;;;;;;;3.33;81.36;99117.50;5018707;28;20488;-54
2021/04/28 02:11:16;;;;;;;0.30;0.10;;;;;;;3.46;79.76;99117.22;5018487;28;20472;-63
2021/04/28 02:13:47;;;;;;;0.30;0.20;;;;;;;2.98;82.18;99114.59;5018817;28;21005;-54
2021/04/28 02:16:13;;;;;;;0.30;0.20;;;;;;;2.96;81.33;99119.00;5018891;28;20453;-54
2021/04/28 02:18:41;;;;;;;0.30;0.20;;;;;;;3.20;80.98;99117.72;5018747;28;20474;-54
2021/04/28 02:21:08;;;;;;;0.30;0.10;;;;;;;3.17;81.74;99117.78;5018967;28;20526;-54
2021/04/28 02:23:38;;;;;;;0.30;0.20;;;;;;;3.13;81.68;99117.84;5018269;28;20464;-54
2021/04/28 02:26:05;;;;;;;0.30;0.20;;;;;;;3.18;81.57;99109.00;5017804;28;20455;-54
2021/04/28 02:28:32;;;;;;;0.30;0.20;;;;;;;2.93;81.97;99107.69;5017423;28;20496;-54
2021/04/28 02:30:59;;;;;;;0.30;0.20;;;;;;;2.79;82.64;99109.69;5018221;28;20906;-55
2021/04/28 02:33:26;;;;;;;0.30;0.20;;;;;;;2.95;82.85;99105.91;5018220;28;20510;-56
2021/04/28 02:35:55;;;;;;;0.30;0.20;;;;;;;3.12;82.04;99098.59;5018179;28;20453;-55
2021/04/28 02:39:06;;;;;;;0.30;0.20;;;;;;;3.07;82.59;99094.31;5018022;28;20943;-56
2021/04/28 02:41:33;;;;;;;0.30;0.13;;;;;;;3.05;81.91;99089.09;5006667;28;20846;-55
2021/04/28 02:44:01;;;;;;;0.30;0.20;;;;;;;2.96;82.97;99100.63;5016504;28;20469;-57
2021/04/28 02:46:28;;;;;;;0.30;0.20;;;;;;;3.11;82.43;99096.00;5017773;28;20448;-56
2021/04/28 02:48:56;;;;;;;0.30;0.20;;;;;;;2.89;82.39;99096.38;5017452;28;20489;-55
2021/04/28 02:51:25;;;;;;;0.30;0.20;;;;;;;2.96;82.90;99084.88;5018104;28;20473;-55
2021/04/28 02:53:52;;;;;;;0.30;0.10;;;;;;;3.01;82.10;99092.66;5017726;28;20456;-56
2021/04/28 02:56:18;;;;;;;0.30;0.20;;;;;;;2.93;83.05;99084.94;5017644;28;20449;-55
2021/04/28 02:58:44;;;;;;;0.30;0.20;;;;;;;2.97;82.65;99081.34;5017421;28;20480;-56
2021/04/28 03:01:11;;;;;;;0.30;0.20;;;;;;;3.16;82.19;99086.31;5017215;28;20811;-55
2021/04/28 03:03:41;;;;;;;0.30;0.10;;;;;;;2.91;82.24;99088.47;5016255;28;20953;-56
2021/04/28 03:06:11;;;;;;;0.30;0.20;;;;;;;2.96;83.29;99086.63;5017463;28;20495;-55
2021/04/28 03:08:37;;;;;;;0.30;0.20;;;;;;;2.83;83.57;99085.13;5017406;28;20492;-55
2021/04/28 03:11:04;;;;;;;0.30;0.10;;;;;;;2.85;83.26;99084.19;5017287;28;20879;-57
2021/04/28 03:13:31;;;;;;;0.30;0.20;;;;;;;2.76;84.58;99086.13;5017154;28;20456;-59
2021/04/28 03:15:57;;;;;;;0.30;0.10;;;;;;;2.83;83.71;99072.84;5017430;28;20448;-56
2021/04/28 03:18:24;;;;;;;0.30;0.20;;;;;;;2.98;82.12;99083.09;5017241;28;20962;-55
2021/04/28 03:20:52;;;;;;;0.30;0.10;;;;;;;2.78;82.69;99084.34;5015708;28;20480;-55
2021/04/28 03:23:21;;;;;;;0.30;0.13;;;;;;;2.60;83.73;99090.72;5014852;28;20481;-56
2021/04/28 03:25:47;;;;;;;0.30;0.20;;;;;;;2.71;83.51;99087.94;5014842;28;20449;-55
2021/04/28 03:28:13;;;;;;;0.30;0.20;;;;;;;2.60;84.36;99096.88;5015063;28;20504;-58
2021/04/28 03:30:40;;;;;;;1.10;1.10;;;;;;;2.80;83.46;99096.53;5015161;28;20826;-56
2021/04/28 03:33:06;;;;;;;0.30;0.20;;;;;;;2.52;83.49;99092.63;5015749;28;20476;-56
2021/04/28 03:35:32;;;;;;;0.30;0.20;;;;;;;2.59;83.81;99097.72;5015213;28;20485;-56
2021/04/28 03:37:58;;;;;;;0.30;0.20;;;;;;;2.45;84.69;99097.06;5015328;28;20463;-55
2021/04/28 03:40:24;;;;;;;0.30;0.20;;;;;;;2.42;84.16;99089.25;5014141;28;20473;-56
2021/04/28 03:42:51;;;;;;;0.30;0.10;;;;;;;2.48;84.17;99085.69;5016275;28;20872;-55
2021/04/28 03:45:17;;;;;;;0.30;0.10;;;;;;;2.41;84.25;99098.03;5016415;28;20456;-56
2021/04/28 03:47:43;;;;;;;0.30;0.20;;;;;;;2.38;84.52;99100.69;5016714;28;20500;-56
2021/04/28 03:50:10;;;;;;;0.30;0.10;;;;;;;2.22;85.98;99099.19;5016328;28;20890;-58
2021/04/28 03:52:38;;;;;;;0.30;0.10;;;;;;;2.27;86.20;99095.59;5016727;28;20452;-55
2021/04/28 03:55:06;;;;;;;0.30;0.10;;;;;;;2.37;86.09;99099.84;5017184;28;20884;-56
2021/04/28 03:57:32;;;;;;;0.30;0.10;;;;;;;2.35;86.03;99099.00;5016768;28;20453;-56
2021/04/28 04:00:05;;;;;;;0.30;0.20;;;;;;;2.34;85.80;99101.63;5015993;28;20468;-56
2021/04/28 04:02:31;;;;;;;0.30;0.20;;;;;;;2.27;86.58;99097.38;5017461;28;20503;-56
2021/04/28 04:04:59;;;;;;;0.30;0.10;;;;;;;2.17;86.34;99095.75;5015713;28;20459;-59
2021/04/28 04:07:26;;;;;;;0.30;0.20;;;;;;;2.20;86.07;99090.50;5016030;28;20891;-62
2021/04/28 04:09:52;;;;;;;0.30;0.20;;;;;;;2.13;86.50;99105.41;5016167;28;20866;-62
2021/04/28 04:12:19;;;;;;;0.30;0.10;;;;;;;2.27;86.79;99099.97;5016027;28;20514;-56
2021/04/28 04:14:45;;;;;;;0.30;0.17;;;;;;;2.37;86.47;99098.97;5015731;28;20452;-60
2021/04/28 04:17:11;;;;;;;0.30;0.20;;;;;;;2.12;86.25;99106.31;5016897;28;20837;-56
2021/04/28 04:19:37;;;;;;;0.30;0.10;;;;;;;2.20;87.26;99109.69;5014508;28;20508;-56
2021/04/28 04:22:04;;;;;;;0.30;0.10;;;;;;;2.25;87.00;99114.88;5015448;28;20444;-55
2021/04/28 04:24:30;;;;;;;0.30;0.10;;;;;;;2.22;86.70;99105.31;5016521;28;20456;-56
2021/04/28 04:26:56;;;;;;;0.30;0.10;;;;;;;2.58;85.93;99106.50;5016260;28;20469;-58
2021/04/28 04:29:23;;;;;;;0.30;0.20;;;;;;;2.31;87.07;99112.16;5015528;28;20499;-55
2021/04/28 04:31:49;;;;;;;0.30;0.20;;;;;;;2.41;85.49;99105.88;5015681;28;20484;-54
2021/04/28 04:34:15;;;;;;;0.90;0.90;;;;;;;2.38;85.26;99116.44;5015856;28;21009;-54
2021/04/28 04:36:41;;;;;;;0.30;0.10;;;;;;;2.38;86.11;99116.44;5015310;28;20479;-55
2021/04/28 04:39:08;;;;;;;0.30;0.10;;;;;;;2.34;85.03;99110.38;5015932;28;20453;-57
2021/04/28 04:41:34;;;;;;;0.20;0.10;;;;;;;2.52;85.35;99113.59;5015606;28;20535;-58
2021/04/28 04:44:00;;;;;;;0.27;0.10;;;;;;;2.47;86.17;99113.69;5015774;28;20448;-57
2021/04/28 04:46:26;;;;;;;0.27;0.20;;;;;;;2.59;86.10;99109.97;5016456;28;20957;-55
2021/04/28 04:48:52;;;;;;;0.23;0.17;;;;;;;2.70;86.04;99113.31;5015716;28;20523;-56
2021/04/28 04:51:19;;;;;;;0.30;0.10;;;;;;;2.75;84.83;99110.63;5016274;28;20476;-55
2021/04/28 04:53:45;;;;;;;0.30;0.10;;;;;;;2.77;85.98;99111.47;5019814;28;20479;-64
2021/04/28 04:56:11;;;;;;;0.30;0.20;;;;;;;2.83;85.59;99104.34;5020553;28;20471;-54
2021/04/28 04:58:37;;;;;;;0.30;0.17;;;;;;;3.37;84.30;99111.28;5020405;28;20974;-54
2021/04/28 05:01:04;;;;;;;0.50;0.50;;;;;;;4.15;80.79;99110.56;5019862;28;20477;-55
2021/04/28 05:03:30;;;;;;;0.30;0.20;;;;;;;4.88;77.54;99098.34;5019200;28;20456;-56
2021/04/28 05:05:57;;;;;;;0.30;0.20;;;;;;;5.58;74.58;99099.13;5018783;28;20448;-55
2021/04/28 05:08:23;;;;;;;0.30;0.20;;;;;;;5.86;73.16;99099.19;5018526;28;20488;-55
2021/04/28 05:10:49;;;;;;;0.30;0.20;;;;;;;6.01;73.23;99099.69;5018507;28;20547;-58
2021/04/28 05:13:15;;;;;;;0.30;0.20;;;;;;;6.03;72.70;99109.31;5018659;28;20459;-58
2021/04/28 05:15:41;;;;;;;0.30;0.20;;;;;;;6.12;72.42;99093.19;5018353;28;20460;-58
2021/04/28 05:18:08;;;;;;;0.30;0.20;;;;;;;6.45;71.07;99101.00;5018090;28;20665;-59
2021/04/28 05:20:34;;;;;;;0.30;0.20;;;;;;;6.57;70.16;99107.66;5018187;28;20989;-58
2021/04/28 05:23:00;;;;;;;0.30;0.20;;;;;;;6.61;71.05;99114.59;5017811;28;20456;-58
2021/04/28 05:25:26;;;;;;;0.30;0.20;;;;;;;7.08;68.57;99102.47;5018013;28;20472;-58
2021/04/28 05:27:52;;;;;;;0.60;0.60;;;;;;;6.90;69.61;99105.72;5018093;28;20456;-58
2021/04/28 05:30:23;;;;;;;0.30;0.20;;;;;;;7.25;68.02;99112.47;5017933;28;20472;-58
2021/04/28 05:32:49;;;;;;;0.30;0.20;;;;;;;7.41;67.77;99109.25;5016759;28;20457;-59
2021/04/28 05:35:15;;;;;;;0.30;0.20;;;;;;;7.70;65.38;99099.44;5017330;28;20456;-59
2021/04/28 05:37:42;;;;;;;0.30;0.20;;;;;;;7.86;65.15;99103.25;5017383;28;20956;-60
2021/04/28 05:40:09;;;;;;;0.30;0.20;;;;;;;7.76;64.74;99107.13;5017341;28;20886;-57
2021/04/28 05:42:37;;;;;;;0.30;0.20;;;;;;;7.80;65.90;99103.44;5017850;28;20934;-58
2021/04/28 05:45:08;;;;;;;0.30;0.20;;;;;;;7.67;66.27;99107.44;5017510;28;20452;-57
2021/04/28 05:47:34;;;;;;;0.30;0.20;;;;;;;7.47;66.81;99102.03;5017071;28;20870;-58
2021/04/28 05:50:02;;;;;;;0.30;0.30;;;;;;;7.78;66.26;99096.50;5017306;28;21073;-59
2021/04/28 05:52:28;;;;;;;0.30;0.20;;;;;;;8.01;65.67;99097.38;5016666;28;20453;-60
2021/04/28 05:54:54;;;;;;;0.30;0.20;;;;;;;7.82;64.95;99099.00;5016518;28;21011;-58
2021/04/28 05:57:32;;;;;;;1.23;1.07;;;;;;;8.30;63.80;99093.63;5016224;28;20471;-58
2021/04/28 06:00:09;;;;;;;0.30;0.20;;;;;;;8.25;64.43;99079.72;5015626;28;20985;-59
2021/04/28 06:02:35;;;;;;;0.50;0.47;;;;;;;8.42;64.83;99094.09;5015952;28;20471;-58
2021/04/28 06:05:02;;;;;;;0.30;0.20;;;;;;;8.41;63.47;99092.38;5016128;28;20449;-58
2021/04/28 06:07:28;;;;;;;0.40;0.30;;;;;;;8.44;62.77;99093.13;5016743;28;20515;-59
2021/04/28 06:09:54;;;;;;;0.30;0.20;;;;;;;8.93;62.13;99091.16;5014616;28;20492;-58
2021/04/28 06:12:20;;;;;;;0.80;0.80;;;;;;;8.61;62.01;99095.94;5016173;28;20453;-58
2021/04/28 06:14:46;;;;;;;0.30;0.20;;;;;;;8.72;63.02;99107.91;5015160;28;20498;-58
2021/04/28 06:17:12;;;;;;;0.30;0.20;;;;;;;8.74;62.00;99106.06;5015746;28;20539;-57
2021/04/28 06:19:39;;;;;;;0.30;0.20;;;;;;;8.55;62.27;99106.81;5015210;28;20954;-57
2021/04/28 06:22:05;;;;;;;0.30;0.20;;;;;;;9.30;60.33;99102.84;5015282;28;20444;-57
2021/04/28 06:24:35;;;;;;;0.30;0.20;;;;;;;8.71;62.63;99095.59;5015315;28;20449;-58
2021/04/28 06:27:02;;;;;;;1.53;1.43;;;;;;;8.73;62.61;99091.94;5015221;28;20476;-57
2021/04/28 06:29:28;;;;;;;1.23;1.13;;;;;;;8.61;62.74;99106.53;5015139;28;20480;-58
2021/04/28 06:31:54;;;;;;;0.30;0.20;;;;;;;8.73;63.59;99107.00;5014805;28;21017;-58
2021/04/28 06:34:21;;;;;;;0.87;0.87;;;;;;;9.34;63.14;99099.16;5015070;28;20449;-56
2021/04/28 06:36:48;;;;;;;0.30;0.20;;;;;;;9.71;60.92;99104.56;5014727;28;20953;-57
2021/04/28 06:39:14;;;;;;;0.30;0.20;;;;;;;8.80;62.31;99084.63;5014787;28;20967;-57
2021/04/28 06:41:42;;;;;;;0.30;0.20;;;;;;;8.78;63.16;99091.78;5014909;28;20523;-58
2021/04/28 06:44:09;;;;;;;0.30;0.20;;;;;;;9.23;63.65;99093.44;5014647;28;20502;-57
2021/04/28 06:46:35;;;;;;;0.30;0.20;;;;;;;9.10;64.00;99096.63;5013185;28;20913;-57
2021/04/28 06:49:02;;;;;;;0.30;0.20;;;;;;;9.27;65.22;99095.91;5014250;28;20492;-58
2021/04/28 06:51:28;;;;;;;0.30;0.20;;;;;;;9.49;64.29;99094.06;5014409;28;20479;-58
2021/04/28 06:53:55;;;;;;;0.30;0.20;;;;;;;9.60;64.03;99090.09;5014245;28;20969;-58
2021/04/28 06:56:21;;;;;;;0.30;0.20;;;;;;;10.29;62.52;99078.09;5014350;28;20448;-58
2021/04/28 06:58:49;;;;;;;0.30;0.20;;;;;;;9.70;63.75;99088.72;5014078;28;20934;-58
2021/04/28 07:01:16;;;;;;;0.30;0.20;;;;;;;9.78;64.25;99079.50;5014080;28;20535;-58
2021/04/28 07:03:42;;;;;;;0.30;0.20;;;;;;;10.23;63.21;99088.97;5014304;28;20456;-58
2021/04/28 07:06:11;;;;;;;1.20;1.20;;;;;;;10.21;63.73;99084.66;5014406;28;20455;-58
2021/04/28 07:08:38;;;;;;;0.33;0.20;;;;;;;10.23;62.57;99078.34;5013945;28;20515;-58
2021/04/28 07:11:05;;;;;;;0.30;0.20;;;;;;;10.23;62.17;99083.66;5013921;28;20473;-58
2021/04/28 07:13:31;;;;;;;0.37;0.23;;;;;;;10.21;63.70;99084.66;5013841;28;20461;-58
2021/04/28 07:15:58;;;;;;;0.50;0.50;;;;;;;10.45;62.24;99078.22;5013577;28;20459;-58
2021/04/28 07:18:24;;;;;;;0.30;0.20;;;;;;;11.08;62.31;99080.44;5013941;28;20476;-58
2021/04/28 07:20:50;;;;;;;9.00;1.33;;;;;;;11.34;59.19;99084.44;5013704;28;20986;-58
2021/04/28 07:23:17;;;;;;;0.30;0.20;;;;;;;11.67;60.01;99079.22;5013657;28;20499;-58
2021/04/28 07:25:43;;;;;;;0.40;0.30;;;;;;;11.86;58.08;99074.66;5013543;28;20456;-58
2021/04/28 07:28:09;;;;;;;0.40;0.33;;;;;;;11.87;58.38;99081.69;5013476;28;20465;-58
2021/04/28 07:30:36;;;;;;;0.30;0.20;;;;;;;11.61;58.05;99071.53;5013713;28;20538;-58
2021/04/28 07:33:04;;;;;;;0.30;0.20;;;;;;;11.80;58.35;99069.66;5013574;28;20503;-58
2021/04/28 07:35:30;;;;;;;0.40;0.40;;;;;;;11.40;58.32;99069.06;5012484;28;20459;-58
2021/04/28 07:37:57;;;;;;;0.77;0.37;;;;;;;12.02;56.88;99072.00;5013394;28;20791;-58
2021/04/28 07:40:23;;;;;;;0.30;0.20;;;;;;;12.21;58.10;99069.22;5013357;28;21036;-58
2021/04/28 07:42:50;;;;;;;0.30;0.20;;;;;;;12.46;56.14;99069.56;5013209;28;20460;-58
2021/04/28 07:45:18;;;;;;;0.30;0.20;;;;;;;12.42;57.01;99068.03;5013202;28;20445;-58
2021/04/28 07:47:44;;;;;;;0.30;0.20;;;;;;;12.95;56.32;99058.78;5013317;28;20539;-58
2021/04/28 07:50:15;;;;;;;0.30;0.20;;;;;;;12.76;54.46;99064.34;5013132;28;20575;-58
2021/04/28 07:52:41;;;;;;;0.30;0.20;;;;;;;13.13;53.81;99060.38;5000393;28;20459;-58
2021/04/28 07:55:08;;;;;;;0.57;0.50;;;;;;;13.82;52.97;99062.44;5012928;28;20452;-58
2021/04/28 07:57:34;;;;;;;0.50;0.50;;;;;;;13.37;53.57;99051.91;5012966;28;20448;-58
2021/04/28 08:00:00;;;;;;;0.30;0.20;;;;;;;14.11;53.06;99051.75;5013156;28;20464;-58
2021/04/28 08:02:27;;;;;;;0.30;0.20;;;;;;;13.79;52.63;99045.75;5013214;28;20460;-58
2021/04/28 08:04:53;;;;;;;0.30;0.20;;;;;;;13.78;50.16;99050.25;5013005;28;20449;-58
2021/04/28 08:07:19;;;;;;;3.23;0.60;;;;;;;13.68;50.83;99051.75;5011678;28;20485;-58
2021/04/28 08:09:46;;;;;;;0.77;0.77;;;;;;;13.68;49.95;99040.22;5012582;28;20520;-58
2021/04/28 08:12:13;;;;;;;0.30;0.20;;;;;;;13.88;50.29;99038.03;5013252;28;20464;-58
2021/04/28 08:14:40;;;;;;;0.30;0.20;;;;;;;14.27;49.26;99039.16;5012868;28;20452;-58
2021/04/28 08:17:09;;;;;;;0.30;0.20;;;;;;;14.33;48.25;99043.25;5012967;28;20456;-58
2021/04/28 08:19:35;;;;;;;0.30;0.20;;;;;;;14.23;48.57;99045.66;5012820;28;20544;-58
2021/04/28 08:22:02;;;;;;;0.30;0.20;;;;;;;14.62;49.07;99038.72;5013130;28;20464;-59
2021/04/28 08:24:30;;;;;;;0.40;0.20;;;;;;;14.42;48.02;99051.56;5012642;28;20455;-57
2021/04/28 08:26:56;;;;;;;0.30;0.30;;;;;;;14.42;48.78;99048.88;5012273;28;20448;-58
2021/04/28 08:29:23;;;;;;;0.30;0.20;;;;;;;14.39;47.21;99048.19;5012747;28;20547;-57
2021/04/28 08:31:49;;;;;;;0.40;0.30;;;;;;;14.28;47.65;99054.25;5043180;22;20522;-50
2021/04/28 08:34:16;;;;;;;0.30;0.20;;;;;;;14.65;47.52;99043.88;5032198;28;20458;-49
2021/04/28 08:36:42;;;;;;;0.30;0.20;;;;;;;14.65;46.82;99038.53;5032396;28;20487;-50
2021/04/28 08:39:08;;;;;;;0.30;0.20;;;;;;;14.71;47.22;99041.66;5032208;28;20443;-50
2021/04/28 08:41:38;;;;;;;0.40;0.33;;;;;;;14.89;47.13;99038.72;5029575;28;20475;-50
2021/04/28 08:44:08;;;;;;;0.40;0.30;;;;;;;15.16;46.23;99036.03;5019054;28;20511;-50
2021/04/28 08:46:35;;;;;;;2.20;2.10;;;;;;;15.09;46.74;99032.91;5032307;28;20443;-50
2021/04/28 08:49:04;;;;;;;0.40;0.37;;;;;;;15.23;46.20;99037.34;5032028;28;20487;-50
2021/04/28 08:51:31;;;;;;;1.07;1.07;;;;;;;15.19;46.76;99036.66;5022061;28;20475;-50
2021/04/28 08:53:57;;;;;;;15.63;1.47;;;;;;;15.99;47.05;99029.34;5016285;28;20940;-50
2021/04/28 08:56:24;;;;;;;0.83;0.83;;;;;;;16.09;45.30;99026.88;5032473;28;20452;-50
2021/04/28 08:58:51;;;;;;;0.30;0.20;;;;;;;16.08;45.33;99023.34;5019079;28;20459;-50
2021/04/28 09:01:27;;;;;;;0.87;0.87;;;;;;;15.88;45.24;99027.44;5032454;28;20825;-50
2021/04/28 09:03:54;;;;;;;0.70;0.70;;;;;;;16.15;45.83;99024.59;5032116;28;20457;-50
2021/04/28 09:06:35;;;;;;;0.30;0.20;;;;;;;15.99;45.34;99022.19;5014842;28;20505;-50
2021/04/28 09:09:15;;;;;;;0.40;0.30;;;;;;;16.10;45.14;99029.47;5012413;28;20579;-51
2021/04/28 09:11:53;;;;;;;0.70;0.70;;;;;;;16.23;44.01;99029.44;5025710;28;20468;-50
2021/04/28 09:14:28;;;;;;;0.30;0.20;;;;;;;16.38;43.75;99032.84;5023698;28;20448;-50
2021/04/28 09:16:54;;;;;;;0.40;0.30;;;;;;;16.09;42.92;99032.25;5032185;28;20502;-49
2021/04/28 09:19:29;;;;;;;1.47;1.40;;;;;;;16.50;42.97;99024.75;5032037;28;20451;-50
2021/04/28 09:22:00;;;;;;;0.40;0.20;;;;;;;16.31;42.60;99021.72;5032297;28;20466;-50
2021/04/28 09:24:29;;;;;;;0.40;0.40;;;;;;;16.57;43.31;99020.63;5031868;28;20455;-50
2021/04/28 09:26:57;;;;;;;0.50;0.50;;;;;;;16.81;42.66;99015.31;5031716;28;20979;-50
2021/04/28 09:29:32;;;;;;;0.30;0.20;;;;;;;16.49;43.10;99014.13;5031527;28;20526;-50
2021/04/28 09:32:04;;;;;;;2.00;1.93;;;;;;;16.76;43.25;99011.28;5031628;28;20600;-50
2021/04/28 09:34:42;;;;;;;0.50;0.50;;;;;;;16.60;42.52;99006.16;5031887;28;20983;-49
2021/04/28 09:37:14;;;;;;;28.87;1.17;;;;;;;16.35;42.48;99011.59;5031737;28;20990;-50
2021/04/28 09:39:48;;;;;;;0.40;0.20;;;;;;;16.71;42.55;99014.28;5034729;28;20498;-50
2021/04/28 09:42:19;;;;;;;1.43;1.13;;;;;;;16.96;41.40;99015.13;5034982;28;20504;-49
2021/04/28 09:44:49;;;;;;;0.33;0.20;;;;;;;16.99;41.42;99006.84;5023783;28;20448;-50
2021/04/28 09:47:22;;;;;;;0.40;0.30;;;;;;;17.14;42.83;98997.66;5035220;28;20444;-50
2021/04/28 09:49:50;;;;;;;0.87;0.87;;;;;;;17.36;42.56;98997.69;5034998;28;20486;-50
2021/04/28 09:52:40;;;;;;;1.13;1.13;;;;;;;16.98;42.23;99005.13;5004449;28;20451;-49
2021/04/28 09:55:18;;;;;;;0.63;0.63;;;;;;;16.80;42.69;98994.81;5035379;28;20482;-49
2021/04/28 09:57:46;;;;;;;0.37;0.20;;;;;;;17.00;41.88;98993.34;5009426;28;20453;-50
2021/04/28 10:00:19;;;;;;;0.40;0.30;;;;;;;17.08;42.24;98985.53;5012829;28;20467;-50
2021/04/28 10:02:54;;;;;;;0.83;0.83;;;;;;;17.08;41.61;98995.41;5035289;28;20448;-49
2021/04/28 10:05:28;;;;;;;0.40;0.20;;;;;;;16.74;42.02;98987.25;5035115;28;20537;-49
2021/04/28 10:08:18;;;;;;;0.83;0.60;;;;;;;17.10;42.22;98988.09;5035034;28;20447;-50
2021/04/28 10:10:46;;;;;;;0.40;0.40;;;;;;;16.97;41.47;98990.84;5034716;28;20490;-49
2021/04/28 10:13:14;;;;;;;0.60;0.60;;;;;;;17.51;42.21;98986.75;5021829;28;20455;-50
2021/04/28 10:15:41;;;;;;;0.30;0.20;;;;;;;17.51;42.98;98978.69;5034842;28;20999;-49
2021/04/28 10:18:10;;;;;;;0.40;0.30;;;;;;;17.52;42.41;98975.88;5035007;28;20459;-49
2021/04/28 10:20:38;;;;;;;0.50;0.47;;;;;;;18.08;42.18;98972.38;5018285;28;20499;-49
2021/04/28 10:23:07;;;;;;;0.40;0.20;;;;;;;18.15;40.91;98976.28;5034349;28;20460;-50
2021/04/28 10:25:34;;;;;;;0.40;0.40;;;;;;;18.16;41.15;98969.94;5034302;28;20816;-50
2021/04/28 10:28:02;;;;;;;1.13;0.40;;;;;;;18.40;41.60;98967.94;5034625;28;20452;-50
2021/04/28 10:30:29;;;;;;;0.40;0.20;;;;;;;18.30;40.40;98970.53;5034508;28;20545;-50
2021/04/28 10:32:56;;;;;;;0.63;0.63;;;;;;;18.82;40.08;98971.63;5034711;28;20811;-50
2021/04/28 10:35:28;;;;;;;0.40;0.30;;;;;;;18.84;39.62;98966.13;5034380;28;20451;-50
2021/04/28 10:37:56;;;;;;;0.40;0.20;;;;;;;19.08;39.88;98972.13;5016696;28;20447;-50
2021/04/28 10:40:24;;;;;;;0.90;0.90;;;;;;;18.99;39.63;98964.81;5034478;28;20502;-51
2021/04/28 10:42:52;;;;;;;0.40;0.20;;;;;;;19.33;38.66;98964.66;5028221;28;20467;-50
2021/04/28 10:45:24;;;;;;;0.50;0.40;;;;;;;19.47;38.81;98956.25;5027272;28;20455;-50
2021/04/28 10:47:54;;;;;;;0.50;0.47;;;;;;;20.01;37.70;98950.56;5034252;28;20467;-51
2021/04/28 10:50:46;;;;;;;0.87;0.87;;;;;;;19.61;39.09;98947.84;5031876;28;20549;-50
2021/04/28 10:53:27;;;;;;;3.33;1.23;;;;;;;19.49;38.39;98948.88;5026264;28;20447;-52
2021/04/28 10:55:58;;;;;;;0.40;0.30;;;;;;;19.27;38.39;98952.56;5016478;28;20447;-52
2021/04/28 10:58:31;;;;;;;1.43;1.33;;;;;;;18.75;39.17;98945.34;5020807;28;20891;-52
2021/04/28 11:01:00;;;;;;;0.40;0.20;;;;;;;19.05;39.00;98940.06;5034114;28;20460;-52
2021/04/28 11:03:54;;;;;;;34.87;2.30;;;;;;;19.33;38.23;98926.94;5016456;28;20531;-52
2021/04/28 11:06:20;;;;;;;4.63;0.63;;;;;;;19.57;37.24;98930.19;5012090;28;21051;-52
2021/04/28 11:08:49;;;;;;;0.40;0.20;;;;;;;19.03;36.83;98942.03;5033707;28;20482;-52
2021/04/28 11:11:35;;;;;;;0.40;0.30;;;;;;;19.37;36.82;98931.06;5033644;28;20471;-52
2021/04/28 11:14:29;;;;;;;0.50;0.50;;;;;;;19.33;36.41;98926.94;5023231;28;20497;-52
2021/04/28 11:17:04;;;;;;;0.50;0.50;;;;;;;19.10;36.78;98927.06;4996819;28;20464;-52
2021/04/28 11:19:40;;;;;;;1.70;1.60;;;;;;;19.14;37.31;98917.72;5028154;28;20949;-52
2021/04/28 11:22:07;;;;;;;1.00;1.00;;;;;;;19.10;38.21;98927.06;5033656;28;20999;-52
2021/04/28 11:24:52;;;;;;;1.27;0.80;;;;;;;19.03;38.53;98919.63;5033435;28;20447;-52
2021/04/28 11:27:56;;;;;;;1.80;1.53;;;;;;;19.37;37.96;98906.81;5016428;28;20483;-52
2021/04/28 11:30:33;;;;;;;0.40;0.30;;;;;;;19.36;37.97;98913.19;5033127;28;20510;-52
2021/04/28 11:33:12;;;;;;;1.90;0.90;;;;;;;19.07;36.78;98913.88;5033401;28;20794;-52
2021/04/28 11:35:52;;;;;;;1.30;1.13;;;;;;;19.64;37.52;98912.50;5033357;28;20452;-52
2021/04/28 11:38:22;;;;;;;10.03;1.07;;;;;;;19.79;36.83;98908.47;5013778;28;20444;-53
2021/04/28 11:40:55;;;;;;;0.40;0.20;;;;;;;19.78;36.53;98901.34;5029103;28;20470;-52
2021/04/28 11:43:25;;;;;;;0.50;0.50;;;;;;;20.56;35.28;98894.31;5013929;28;20898;-52
2021/04/28 11:45:52;;;;;;;0.60;0.50;;;;;;;20.48;36.02;98893.31;5030159;28;20456;-52